Flight Track Log - Related Links

Times and Time Zones

All times are in EDT time to prevent confusion due to time zone crossing. See the UAL3740 flight status page for this flight to view local times or setup timezone preferences in your user account.

Time Position Orientation Groundspeed Altitude Reporting Facility
EDT Latitude Longitude Course Direction KTS MPH feet Rate Location/Type
Fri 08:33:04 AM 38.9833 -77.5500 78° East 228 262 2,800  Level Potomac TRACON
Fri 08:34:05 AM 39.0500 -77.5667 349° North 290 334 5,500 2,727 Climbing Potomac TRACON
Fri 08:35:05 AM 39.1333 -77.5167 25° Northeast 327 376 8,300 2,300 Climbing Potomac TRACON
Fri 08:36:05 AM 39.1667 -77.4167 67° East 345 397 10,100 887 Climbing Potomac TRACON
Fri 08:37:00 AM 39.1667 -77.3000 90° East 386 444 10,000 157 Descending Potomac TRACON
Fri 08:38:00 AM 39.0846 -76.5590 78° East  Level FlightAware Approximate
Fri 08:38:00 AM 39.1333 -77.1667 108° East 386 444 10,400  Level Potomac TRACON
Fri 08:40:07 AM 39.0878 -76.8778 101° East 405 466 14,200 1,829 Climbing Washington Center
Fri 08:41:07 AM 39.0997 -76.7256 84° East 411 473 16,100 1,950 Climbing Washington Center
Fri 08:42:07 AM 39.1136 -76.5733 83° East 418 481 18,100 1,800 Climbing Washington Center
Fri 08:43:07 AM 39.1294 -76.4158 83° East 430 495 19,700 1,700 Climbing Washington Center
Fri 08:44:07 AM 39.1450 -76.2581 83° East 436 502 21,500 1,700 Climbing Washington Center
Fri 08:45:07 AM 39.1686 -76.0789 80° East 448 516 23,100 1,650 Climbing Washington Center
Fri 08:46:07 AM 39.1900 -75.9183 80° East 448 516 24,800 1,450 Climbing Washington Center
Fri 08:47:07 AM 39.2653 -75.7900 53° Northeast 433 498 26,000 1,200 Climbing Washington Center
Fri 08:48:07 AM 39.3594 -75.6667 45° Northeast 455 524 27,200 1,050 Climbing Washington Center
Fri 08:49:07 AM 39.4531 -75.5431 46° Northeast 461 531 28,100 950 Climbing Washington Center
Fri 08:50:07 AM 39.5508 -75.4192 44° Northeast 472 543 29,100 1,200 Climbing Washington Center
Fri 08:51:07 AM 39.6444 -75.2950 46° Northeast 477 549 30,500 1,241 Climbing Washington Center
Fri 08:51:34 AM 39.6828 -75.2433 46° Northeast 482 555 30,900 1,079 Climbing New York Center
Fri 08:52:36 AM 39.7642 -75.1242 48° Northeast 496 571 32,100 1,024 Climbing New York Center
Fri 08:53:37 AM 39.8525 -74.9944 48° Northeast 491 565 33,000 450 Climbing New York Center
Fri 08:54:36 AM 39.9444 -74.8647 47° Northeast 491 565 33,000  Level New York Center
Fri 08:55:34 AM 40.0225 -74.7147 56° Northeast 491 565 33,000  Level New York Center
Fri 08:56:36 AM 40.0886 -74.5422 63° Northeast 491 565 33,000 -144 Level New York Center
Fri 08:59:02 AM 40.2389 -74.1500 63° Northeast 496 571 32,500 -725 Descending Boston Center
Fri 09:00:03 AM 40.2994 -73.9992 62° Northeast 479 551 30,500 -2,017 Descending Boston Center
Fri 09:01:01 AM 40.3597 -73.8453 63° Northeast 466 536 28,500 -1,780 Descending Boston Center
Fri 09:02:01 AM 40.4178 -73.6883 64° Northeast 466 536 27,000 -738 Descending Boston Center
Fri 09:03:03 AM 40.4758 -73.5258 65° Northeast 474 545 27,000 -200 Level Boston Center
Fri 09:04:01 AM 40.5292 -73.3767 65° Northeast 461 531 26,600 -1,008 Descending Boston Center
Fri 09:05:02 AM 40.5844 -73.2297 64° Northeast 450 518 25,000 -1,623 Descending Boston Center
Fri 09:06:03 AM 40.6356 -73.0800 66° East 445 512 23,300 -1,729 Descending Boston Center
Fri 09:07:00 AM 40.6906 -72.9383 63° Northeast 440 506 21,600 -1,525 Descending Boston Center
Fri 09:08:01 AM 40.7408 -72.8072 63° Northeast 440 506 20,300 -1,463 Descending Boston Center
Fri 09:09:03 AM 40.7933 -72.6594 65° Northeast 440 506 18,600 -1,714 Descending Boston Center
Fri 09:10:00 AM 40.8436 -72.5058 67° East 446 513 16,900 -1,700 Descending Boston Center
Fri 09:11:03 AM 40.8978 -72.3606 64° Northeast 446 513 15,200 -1,636 Descending Boston Center
Fri 09:12:01 AM 40.9475 -72.2175 65° Northeast 435 501 13,600 -1,784 Descending Boston Center
Fri 09:12:17 AM 40.9642 -72.1764 62° Northeast 421 484 13,000 -1,800 Descending Boston Center
Fri 09:12:41 AM 40.9850 -72.1239 62° Northeast 419 482 12,400 -1,200 Descending Boston Center
Fri 09:13:02 AM 40.9953 -72.0800 73° East 422 486 12,100 -1,333 Descending Boston Center
Fri 09:13:35 AM 41.0200 -72.0164 63° Northeast 411 473 11,200 -1,100 Descending Boston Center
Fri 09:14:02 AM 41.0322 -71.9778 67° East 402 463 11,000 -500 Descending Boston Center
Fri 09:14:35 AM 41.0694 -71.9006 57° Northeast 383 441 10,700 -590 Descending Boston Center
Fri 09:15:03 AM 41.0942 -71.8481 58° Northeast 369 425 10,400 -1,091 Descending Boston Center
Fri 09:15:30 AM 41.1272 -71.8036 45° Northeast 344 396 9,700 -1,448 Descending Boston Center
Fri 09:16:01 AM 41.1500 -71.7564 57° Northeast 339 390 9,000 -1,770 Descending Boston Center
Fri 09:16:31 AM 41.1831 -71.7147 43° Northeast 321 369 7,900 -1,770 Descending Boston Center
Fri 09:17:02 AM 41.2078 -71.6675 55° Northeast 319 367 7,200 -1,770 Descending Boston Center
Fri 09:17:32 AM 41.2386 -71.6258 45° Northeast 316 364 6,100 -1,967 Descending Boston Center
Fri 09:18:03 AM 41.2697 -71.5756 51° Northeast 299 344 5,200 -1,119 Descending Boston Center
Fri 09:18:31 AM 41.2922 -71.5367 52° Northeast 310 357 5,000 -207 Descending Boston Center
Fri 09:19:01 AM 41.3272 -71.4919 44° Northeast 299 344 5,000  Level Boston Center
Fri 09:19:32 AM 41.3436 -71.4503 62° Northeast 307 353 5,000  Level Boston Center
Fri 09:20:02 AM 41.3828 -71.4025 42° Northeast 294 338 5,000  Level Boston Center
Fri 09:20:32 AM 41.4139 -71.3939 12° North 306 352 5,000  Level Boston Center
Fri 09:21:02 AM 41.4597 -71.3875 North 279 321 5,000  Level Boston Center
Fri 09:21:33 AM 41.4931 -71.3814 North 298 343 5,000  Level Boston Center
Fri 09:22:03 AM 41.5472 -71.3806 North 279 321 5,000  Level Boston Center
Fri 09:22:41 AM 41.5931 -71.3742 North 296 341 5,000  Level Boston Center
Fri 09:23:02 AM 41.6306 -71.3681 North 290 334 5,000  Level Boston Center
Fri 09:23:39 AM 41.6697 -71.3286 37° Northeast 312 359 5,000  Level Boston Center
Fri 09:24:01 AM 41.7028 -71.3139 18° North 290 334 5,000 -774 Level Boston Center
Fri 09:24:41 AM 41.7442 -71.2769 34° Northeast 303 349 4,200 -1,355 Descending Boston Center
Fri 09:25:03 AM 41.7753 -71.2569 26° Northeast 296 341 3,600 -971 Descending Boston Center
Fri 09:25:49 AM 41.8144 -71.2228 33° Northeast 296 341 3,100 -857 Descending Boston Center
Fri 09:26:48 AM 41.8667 -71.2386 347° North 238 274 2,100 -526 Descending Boston Center
Fri 09:27:43 AM 41.8819 -71.2914 291° West 195 224 2,100  Level Boston Center
Fri 09:28:46 AM 41.8447 -71.3253 214° Southwest 170 196 2,100 -50 Level Boston Center
Fri 09:29:44 AM 41.8094 -71.3567 214° Southwest 161 185 2,000 -103 Descending Boston Center

Login

Don't have an account? Register now (free) for customized features, flight alerts, and more!